Time,TemperatureF,DewpointF,PressureIn,WindDirection,WindDirectionDegrees,WindSpeedMPH,WindSpeedGustMPH,Humidity,HourlyPrecipIn,Conditions,Clouds,dailyrainin,SoftwareType,DateUTC
2013-04-21 00:08:00,57.0,56.4,29.96,ESE,112,7.3,-999.0,98,-99.99,,,0.00,Acu-Link.com,2013-04-21 05:08:00,
2013-04-21 00:23:00,56.5,55.9,29.96,ESE,112,6.8,-999.0,98,-99.99,,,0.00,Acu-Link.com,2013-04-21 05:23:00,
2013-04-21 00:38:00,56.1,55.5,29.97,ESE,112,7.3,-999.0,98,-99.99,,,0.00,Acu-Link.com,2013-04-21 05:38:00,
2013-04-21 00:53:00,55.8,55.2,29.97,ESE,112,6.3,-999.0,98,-99.99,,,0.00,Acu-Link.com,2013-04-21 05:53:00,
2013-04-21 01:08:00,55.4,54.8,29.97,NE,45,6.3,-999.0,98,-99.99,,,0.00,Acu-Link.com,2013-04-21 06:08:00,
2013-04-21 01:23:00,54.7,54.1,29.97,ESE,112,5.3,-999.0,98,-99.99,,,0.00,Acu-Link.com,2013-04-21 06:23:00,
2013-04-21 01:39:00,54.1,53.5,29.98,ESE,112,6.8,-999.0,98,-99.99,,,0.00,Acu-Link.com,2013-04-21 06:39:00,
2013-04-21 01:54:00,53.6,53.0,29.98,South,180,3.7,-999.0,98,-99.99,,,0.00,Acu-Link.com,2013-04-21 06:54:00,
2013-04-21 02:09:00,53.1,52.5,29.98,SSE,157,3.7,-999.0,98,-99.99,,,0.00,Acu-Link.com,2013-04-21 07:09:00,
2013-04-21 02:24:00,52.7,52.2,29.98,SE,135,3.7,-999.0,98,-99.99,,,0.00,Acu-Link.com,2013-04-21 07:24:00,
2013-04-21 02:39:00,52.2,51.7,29.98,ESE,112,4.7,-999.0,98,-99.99,,,0.00,Acu-Link.com,2013-04-21 07:39:00,
2013-04-21 02:54:00,51.6,51.1,29.98,ESE,112,3.2,-999.0,98,-99.99,,,0.00,Acu-Link.com,2013-04-21 07:54:00,
2013-04-21 03:09:00,51.1,50.6,29.98,ESE,112,4.2,-999.0,98,-99.99,,,0.00,Acu-Link.com,2013-04-21 08:09:00,
2013-04-21 03:24:00,50.4,49.9,29.98,ESE,112,0.0,-999.0,98,-99.99,,,0.00,Acu-Link.com,2013-04-21 08:24:00,
2013-04-21 03:39:00,49.8,49.3,29.97,East,90,0.0,-999.0,98,-99.99,,,0.00,Acu-Link.com,2013-04-21 08:39:00,
2013-04-21 03:55:00,49.1,48.6,29.98,ESE,112,0.0,-999.0,98,-99.99,,,0.00,Acu-Link.com,2013-04-21 08:55:00,
2013-04-21 04:10:00,48.9,48.4,29.98,ESE,112,0.0,-999.0,98,-99.99,,,0.00,Acu-Link.com,2013-04-21 09:10:00,
2013-04-21 04:25:00,48.4,47.9,29.98,ESE,112,0.0,-999.0,98,-99.99,,,0.00,Acu-Link.com,2013-04-21 09:25:00,
2013-04-21 04:40:00,48.0,47.5,29.98,East,90,0.0,-999.0,98,-99.99,,,0.00,Acu-Link.com,2013-04-21 09:40:00,
2013-04-21 04:55:00,47.7,47.2,29.98,ESE,112,0.0,-999.0,98,-99.99,,,0.00,Acu-Link.com,2013-04-21 09:55:00,
2013-04-21 05:10:00,47.5,47.0,29.98,ESE,112,0.0,-999.0,98,-99.99,,,0.00,Acu-Link.com,2013-04-21 10:10:00,
2013-04-21 05:25:00,47.1,46.6,29.98,ESE,112,0.0,-999.0,98,-99.99,,,0.00,Acu-Link.com,2013-04-21 10:25:00,
2013-04-21 05:40:00,46.8,46.3,29.98,ESE,112,0.0,-999.0,98,-99.99,,,0.00,Acu-Link.com,2013-04-21 10:40:00,
2013-04-21 05:55:00,46.4,45.9,29.98,ESE,112,0.0,-999.0,98,-99.99,,,0.00,Acu-Link.com,2013-04-21 10:55:00,
2013-04-21 06:11:00,46.2,45.7,29.99,East,90,0.0,-999.0,98,-99.99,,,0.00,Acu-Link.com,2013-04-21 11:11:00,
2013-04-21 06:26:00,46.4,45.9,29.99,ESE,112,0.0,-999.0,98,-99.99,,,0.00,Acu-Link.com,2013-04-21 11:26:00,
2013-04-21 06:41:00,46.9,46.4,29.99,ESE,112,0.0,-999.0,98,-99.99,,,0.00,Acu-Link.com,2013-04-21 11:41:00,
2013-04-21 06:56:00,47.7,47.2,29.99,ESE,112,0.0,-999.0,98,-99.99,,,0.00,Acu-Link.com,2013-04-21 11:56:00,
2013-04-21 07:11:00,47.8,47.3,29.99,East,90,0.0,-999.0,98,-99.99,,,0.00,Acu-Link.com,2013-04-21 12:11:00,
2013-04-21 07:41:00,48.9,48.4,30.00,ESE,112,3.7,-999.0,98,-99.99,,,0.00,Acu-Link.com,2013-04-21 12:41:00,
2013-04-21 07:56:00,51.8,51.3,30.01,ESE,112,4.7,-999.0,98,-99.99,,,0.00,Acu-Link.com,2013-04-21 12:56:00,
2013-04-21 08:11:00,51.8,51.3,30.01,ESE,112,5.8,-999.0,98,-99.99,,,0.00,Acu-Link.com,2013-04-21 13:11:00,
2013-04-21 08:27:00,55.0,54.4,30.02,ESE,112,4.2,-999.0,98,-99.99,,,0.00,Acu-Link.com,2013-04-21 13:27:00,
2013-04-21 08:42:00,58.3,57.7,30.02,ESE,112,5.3,-999.0,98,-99.99,,,0.00,Acu-Link.com,2013-04-21 13:42:00,
2013-04-21 08:57:00,60.8,60.2,30.03,ESE,112,6.3,-999.0,98,-99.99,,,0.00,Acu-Link.com,2013-04-21 13:57:00,
2013-04-21 09:12:00,62.8,62.2,30.02,East,90,6.3,-999.0,98,-99.99,,,0.00,Acu-Link.com,2013-04-21 14:12:00,
2013-04-21 09:27:00,63.3,62.7,30.03,SSE,157,4.2,-999.0,98,-99.99,,,0.00,Acu-Link.com,2013-04-21 14:27:00,
2013-04-21 09:42:00,64.9,64.3,30.03,ESE,112,4.7,-999.0,98,-99.99,,,0.00,Acu-Link.com,2013-04-21 14:42:00,
2013-04-21 09:57:00,66.6,66.0,30.04,ESE,112,4.2,-999.0,98,-99.99,,,0.00,Acu-Link.com,2013-04-21 14:57:00,
2013-04-21 10:12:00,65.3,64.7,30.04,ESE,112,4.7,-999.0,98,-99.99,,,0.00,Acu-Link.com,2013-04-21 15:12:00,
2013-04-21 10:27:00,65.7,65.1,30.04,ESE,112,6.3,-999.0,98,-99.99,,,0.00,Acu-Link.com,2013-04-21 15:27:00,
2013-04-21 10:43:00,66.2,65.6,30.04,SE,135,3.2,-999.0,98,-99.99,,,0.00,Acu-Link.com,2013-04-21 15:43:00,
2013-04-21 10:58:00,67.3,66.7,30.04,ESE,112,6.3,-999.0,98,-99.99,,,0.00,Acu-Link.com,2013-04-21 15:58:00,
2013-04-21 11:13:00,65.5,64.9,30.04,ENE,67,6.8,-999.0,98,-99.99,,,0.00,Acu-Link.com,2013-04-21 16:13:00,
2013-04-21 11:28:00,68.2,67.6,30.04,ESE,112,4.7,-999.0,98,-99.99,,,0.00,Acu-Link.com,2013-04-21 16:28:00,
2013-04-21 11:43:00,69.3,68.7,30.03,ESE,112,9.4,-999.0,98,-99.99,,,0.00,Acu-Link.com,2013-04-21 16:43:00,
2013-04-21 11:58:00,71.4,53.4,30.04,ESE,112,3.7,-999.0,53,-99.99,,,0.00,Acu-Link.com,2013-04-21 16:58:00,
2013-04-21 12:13:00,71.8,51.0,30.03,West,270,3.7,-999.0,48,-99.99,,,0.00,Acu-Link.com,2013-04-21 17:13:00,
2013-04-21 12:29:00,76.5,47.5,30.02,ESE,112,1.7,-999.0,36,-99.99,,,0.00,Acu-Link.com,2013-04-21 17:29:00,
2013-04-21 12:44:00,78.6,45.4,30.02,ESE,112,4.7,-999.0,31,-99.99,,,0.00,Acu-Link.com,2013-04-21 17:44:00,
2013-04-21 12:59:00,72.5,45.4,30.01,SSE,157,5.3,-999.0,38,-99.99,,,0.00,Acu-Link.com,2013-04-21 17:59:00,
2013-04-21 13:14:00,71.2,46.3,30.00,West,270,4.2,-999.0,41,-99.99,,,0.00,Acu-Link.com,2013-04-21 18:14:00,
2013-04-21 13:29:00,74.8,46.8,29.99,SE,135,6.8,-999.0,37,-99.99,,,0.00,Acu-Link.com,2013-04-21 18:29:00,
2013-04-21 13:44:00,73.6,47.1,29.98,SE,135,3.7,-999.0,39,-99.99,,,0.00,Acu-Link.com,2013-04-21 18:44:00,
2013-04-21 13:59:00,73.9,46.7,29.98,ESE,112,4.2,-999.0,38,-99.99,,,0.00,Acu-Link.com,2013-04-21 18:59:00,
2013-04-21 14:14:00,72.9,46.5,29.97,ESE,112,3.7,-999.0,39,-99.99,,,0.00,Acu-Link.com,2013-04-21 19:14:00,
2013-04-21 14:29:00,73.0,45.2,29.96,NNE,22,4.2,-999.0,37,-99.99,,,0.00,Acu-Link.com,2013-04-21 19:29:00,
2013-04-21 14:45:00,74.3,46.3,29.96,ENE,67,3.7,-999.0,37,-99.99,,,0.00,Acu-Link.com,2013-04-21 19:45:00,
2013-04-21 15:00:00,79.9,44.8,29.95,East,90,5.8,-999.0,29,-99.99,,,0.00,Acu-Link.com,2013-04-21 20:00:00,
2013-04-21 15:15:00,82.0,43.7,29.95,ESE,112,5.3,-999.0,26,-99.99,,,0.00,Acu-Link.com,2013-04-21 20:15:00,
2013-04-21 15:30:00,80.2,44.1,29.93,East,90,4.2,-999.0,28,-99.99,,,0.00,Acu-Link.com,2013-04-21 20:30:00,
2013-04-21 15:45:00,82.0,41.6,29.93,South,180,4.7,-999.0,24,-99.99,,,0.00,Acu-Link.com,2013-04-21 20:45:00,
2013-04-21 16:00:00,80.4,43.3,29.92,ESE,112,4.2,-999.0,27,-99.99,,,0.00,Acu-Link.com,2013-04-21 21:00:00,
2013-04-21 16:15:00,77.2,44.2,29.91,ESE,112,6.8,-999.0,31,-99.99,,,0.00,Acu-Link.com,2013-04-21 21:15:00,
2013-04-21 16:30:00,80.4,43.3,29.91,ESE,112,5.8,-999.0,27,-99.99,,,0.00,Acu-Link.com,2013-04-21 21:30:00,
2013-04-21 16:45:00,77.9,44.0,29.90,ESE,112,6.3,-999.0,30,-99.99,,,0.00,Acu-Link.com,2013-04-21 21:45:00,
2013-04-21 17:01:00,75.9,44.7,29.91,SE,135,3.2,-999.0,33,-99.99,,,0.00,Acu-Link.com,2013-04-21 22:01:00,
2013-04-21 17:16:00,75.7,46.1,29.90,ESE,112,5.3,-999.0,35,-99.99,,,0.00,Acu-Link.com,2013-04-21 22:16:00,
2013-04-21 17:31:00,75.7,46.1,29.90,ESE,112,5.3,-999.0,35,-99.99,,,0.00,Acu-Link.com,2013-04-21 22:31:00,
2013-04-21 17:46:00,76.1,44.9,29.90,East,90,5.8,-999.0,33,-99.99,,,0.00,Acu-Link.com,2013-04-21 22:46:00,
2013-04-21 18:01:00,75.7,46.1,29.89,South,180,6.3,-999.0,35,-99.99,,,0.00,Acu-Link.com,2013-04-21 23:01:00,
2013-04-21 18:16:00,75.6,45.2,29.90,East,90,5.8,-999.0,34,-99.99,,,0.00,Acu-Link.com,2013-04-21 23:16:00,
2013-04-21 18:31:00,74.7,46.0,29.90,ENE,67,4.2,-999.0,36,-99.99,,,0.00,Acu-Link.com,2013-04-21 23:31:00,
2013-04-21 18:46:00,73.2,46.1,29.91,ESE,112,4.2,-999.0,38,-99.99,,,0.00,Acu-Link.com,2013-04-21 23:46:00,
2013-04-21 19:01:00,73.4,46.2,29.90,ESE,112,5.3,-999.0,38,-99.99,,,0.00,Acu-Link.com,2013-04-22 00:01:00,
2013-04-21 19:17:00,72.0,47.6,29.91,East,90,5.8,-999.0,42,-99.99,,,0.00,Acu-Link.com,2013-04-22 00:17:00,
2013-04-21 19:32:00,70.9,49.1,29.91,ESE,112,6.8,-999.0,46,-99.99,,,0.00,Acu-Link.com,2013-04-22 00:32:00,
2013-04-21 19:47:00,69.4,54.0,29.91,East,90,5.3,-999.0,58,-99.99,,,0.00,Acu-Link.com,2013-04-22 00:47:00,
2013-04-21 20:02:00,68.4,63.0,29.92,East,90,3.7,-999.0,83,-99.99,,,0.00,Acu-Link.com,2013-04-22 01:02:00,
2013-04-21 20:17:00,67.3,66.7,29.92,ESE,112,4.7,-999.0,98,-99.99,,,0.00,Acu-Link.com,2013-04-22 01:17:00,
2013-04-21 20:32:00,66.6,66.0,29.93,ESE,112,4.7,-999.0,98,-99.99,,,0.00,Acu-Link.com,2013-04-22 01:32:00,
2013-04-21 20:47:00,65.8,65.2,29.94,East,90,0.0,-999.0,98,-99.99,,,0.00,Acu-Link.com,2013-04-22 01:47:00,
2013-04-21 21:02:00,65.3,64.7,29.94,ESE,112,3.7,-999.0,98,-99.99,,,0.00,Acu-Link.com,2013-04-22 02:02:00,
2013-04-21 21:17:00,64.6,64.0,29.95,East,90,3.7,-999.0,98,-99.99,,,0.00,Acu-Link.com,2013-04-22 02:17:00,
2013-04-21 21:33:00,63.9,63.3,29.96,East,90,3.7,-999.0,98,-99.99,,,0.00,Acu-Link.com,2013-04-22 02:33:00,
2013-04-21 21:48:00,63.1,62.5,29.96,ESE,112,3.7,-999.0,98,-99.99,,,0.00,Acu-Link.com,2013-04-22 02:48:00,
2013-04-21 22:03:00,62.4,61.8,29.96,ESE,112,3.7,-999.0,98,-99.99,,,0.00,Acu-Link.com,2013-04-22 03:03:00,
2013-04-21 22:18:00,61.7,61.1,29.97,ESE,112,4.2,-999.0,98,-99.99,,,0.00,Acu-Link.com,2013-04-22 03:18:00,
2013-04-21 22:33:00,61.2,60.6,29.97,East,90,3.7,-999.0,98,-99.99,,,0.00,Acu-Link.com,2013-04-22 03:33:00,
2013-04-21 22:48:00,61.0,60.4,29.97,ESE,112,3.7,-999.0,98,-99.99,,,0.00,Acu-Link.com,2013-04-22 03:48:00,
2013-04-21 23:03:00,60.8,60.2,29.98,ESE,112,4.2,-999.0,98,-99.99,,,0.00,Acu-Link.com,2013-04-22 04:03:00,
2013-04-21 23:18:00,61.0,60.4,29.98,East,90,5.3,-999.0,98,-99.99,,,0.00,Acu-Link.com,2013-04-22 04:18:00,
2013-04-21 23:33:00,61.3,60.7,29.98,ESE,112,5.3,-999.0,98,-99.99,,,0.00,Acu-Link.com,2013-04-22 04:33:00,
2013-04-21 23:49:00,61.3,60.7,29.98,ESE,112,5.8,-999.0,98,-99.99,,,0.00,Acu-Link.com,2013-04-22 04:49:00,